createdAt,value
2023-08-20T00:02:02.374Z,3.50
2023-08-20T00:06:59.568Z,3.60
2023-08-20T00:09:28.270Z,4.13
2023-08-20T00:11:55.760Z,4.20
2023-08-20T00:14:54.640Z,3.35
2023-08-20T00:17:22.748Z,3.03
2023-08-20T00:19:50.787Z,3.92
2023-08-20T00:22:19.203Z,3.95
2023-08-20T00:24:46.907Z,3.78
2023-08-20T00:27:14.451Z,3.60
2023-08-20T00:29:42.081Z,3.00
2023-08-20T00:32:09.760Z,3.35
2023-08-20T00:34:37.345Z,3.00
2023-08-20T00:37:04.949Z,3.03
2023-08-20T00:39:33.160Z,3.95
2023-08-20T00:42:00.688Z,2.95
2023-08-20T00:44:28.328Z,3.83
2023-08-20T00:46:56.863Z,3.17
2023-08-20T00:49:25.271Z,3.38
2023-08-20T00:51:53.280Z,2.83
2023-08-20T00:54:21.720Z,2.70
2023-08-20T00:56:50.774Z,3.72
2023-08-20T00:59:19.073Z,3.00
2023-08-20T01:01:47.323Z,3.42
2023-08-20T01:04:14.844Z,2.80
2023-08-20T01:07:08.602Z,3.45
2023-08-20T01:10:02.686Z,2.80
2023-08-20T01:12:30.917Z,2.00
2023-08-20T01:14:58.576Z,2.88
2023-08-20T01:17:26.205Z,3.63
2023-08-20T01:19:54.294Z,2.38
2023-08-20T01:22:49.355Z,2.83
2023-08-20T01:25:51.306Z,2.42
2023-08-20T01:28:29.757Z,2.65
2023-08-20T01:31:00.036Z,2.30
2023-08-20T01:33:27.961Z,3.03
2023-08-20T01:35:56.218Z,2.78
2023-08-20T01:38:23.940Z,2.72
2023-08-20T01:40:51.499Z,2.05
2023-08-20T01:43:19.054Z,2.22
2023-08-20T01:45:47.438Z,2.33
2023-08-20T01:48:17.293Z,3.25
2023-08-20T01:50:46.971Z,3.08
2023-08-20T01:53:14.651Z,3.50
2023-08-20T01:55:43.694Z,4.00
2023-08-20T01:58:11.469Z,3.47
2023-08-20T02:00:39.883Z,3.60
2023-08-20T02:03:08.100Z,5.07
2023-08-20T02:05:36.059Z,5.68
2023-08-20T02:08:06.371Z,6.50
2023-08-20T02:10:34.177Z,5.13
2023-08-20T02:13:01.843Z,6.85
2023-08-20T02:15:29.509Z,6.60
2023-08-20T02:17:58.076Z,7.05
2023-08-20T02:20:25.658Z,7.93
2023-08-20T02:22:53.179Z,7.18
2023-08-20T02:25:20.706Z,8.75
2023-08-20T02:27:48.258Z,7.53
2023-08-20T02:30:16.264Z,8.70
2023-08-20T02:32:44.234Z,8.70
2023-08-20T02:35:14.041Z,9.05
2023-08-20T02:37:42.870Z,8.73
2023-08-20T02:40:14.520Z,8.32
2023-08-20T02:42:42.293Z,8.55
2023-08-20T02:45:10.316Z,8.65
2023-08-20T02:47:38.180Z,8.18
2023-08-20T02:50:06.375Z,7.88
2023-08-20T02:52:34.131Z,7.50
2023-08-20T02:55:01.695Z,7.40
2023-08-20T02:57:29.297Z,7.55
2023-08-20T02:59:56.956Z,7.05
2023-08-20T03:02:24.480Z,7.30
2023-08-20T03:04:52.151Z,6.90
2023-08-20T03:07:19.810Z,7.35
2023-08-20T03:09:47.303Z,7.38
2023-08-20T03:12:14.893Z,5.75
2023-08-20T03:14:42.399Z,6.88
2023-08-20T03:17:09.949Z,6.63
2023-08-20T03:19:37.428Z,7.13
2023-08-20T03:22:05.334Z,5.95
2023-08-20T03:24:32.953Z,5.95
2023-08-20T03:27:00.470Z,7.03
2023-08-20T03:29:28.385Z,6.25
2023-08-20T03:31:55.953Z,6.38
2023-08-20T03:34:23.745Z,6.20
2023-08-20T03:36:51.578Z,6.97
2023-08-20T03:39:19.430Z,6.70
2023-08-20T03:41:47.136Z,6.57
2023-08-20T03:44:16.422Z,6.20
2023-08-20T03:46:44.958Z,5.72
2023-08-20T03:49:13.865Z,6.38
2023-08-20T03:51:42.190Z,5.78
2023-08-20T03:54:10.563Z,5.22
2023-08-20T03:56:38.141Z,5.60
2023-08-20T03:59:05.592Z,6.97
2023-08-20T04:01:33.449Z,7.30
2023-08-20T04:04:01.443Z,5.63
2023-08-20T04:06:29.036Z,5.85
2023-08-20T04:08:56.815Z,6.70
2023-08-20T04:11:24.425Z,6.22
2023-08-20T04:13:51.924Z,8.57
2023-08-20T04:16:19.897Z,7.68
2023-08-20T04:18:47.598Z,7.20
2023-08-20T04:21:15.128Z,7.05
2023-08-20T04:23:42.706Z,6.93
2023-08-20T04:26:10.844Z,7.93
2023-08-20T04:28:38.650Z,9.68
2023-08-20T04:31:06.265Z,8.82
2023-08-20T04:33:48.389Z,8.18
2023-08-20T04:36:20.216Z,7.75
2023-08-20T04:38:47.704Z,8.75
2023-08-20T04:41:15.213Z,9.07
2023-08-20T04:43:43.188Z,9.15
2023-08-20T04:46:10.742Z,8.40
2023-08-20T04:48:38.220Z,9.73
2023-08-20T04:51:07.119Z,10.98
2023-08-20T04:53:34.668Z,10.70
2023-08-20T04:56:02.271Z,10.57
2023-08-20T04:58:29.786Z,10.43
2023-08-20T05:00:59.589Z,10.80
2023-08-20T05:03:27.517Z,9.30
2023-08-20T05:05:55.399Z,9.70
2023-08-20T05:08:23.617Z,10.15
2023-08-20T05:10:52.182Z,9.38
2023-08-20T05:13:21.324Z,9.18
2023-08-20T05:15:50.968Z,8.50
2023-08-20T05:18:18.414Z,9.75
2023-08-20T05:20:45.857Z,8.30
2023-08-20T05:23:13.460Z,8.23
2023-08-20T05:25:42.800Z,9.15
2023-08-20T05:28:10.220Z,7.80
2023-08-20T05:30:38.447Z,6.90
2023-08-20T05:33:06.066Z,6.90
2023-08-20T05:35:37.632Z,7.70
2023-08-20T05:38:05.344Z,6.78
2023-08-20T05:40:33.360Z,5.90
2023-08-20T05:43:01.198Z,6.47
2023-08-20T05:45:28.985Z,5.72
2023-08-20T05:47:57.221Z,6.82
2023-08-20T05:50:25.430Z,6.00
2023-08-20T05:52:53.681Z,6.57
2023-08-20T05:55:22.373Z,5.38
2023-08-20T05:57:51.169Z,4.80
2023-08-20T06:00:19.024Z,5.57
2023-08-20T06:02:48.880Z,5.30
2023-08-20T06:05:17.871Z,4.97
2023-08-20T06:07:45.324Z,4.45
2023-08-20T06:10:13.086Z,4.45
2023-08-20T06:12:40.620Z,4.47
2023-08-20T06:15:09.529Z,4.93
2023-08-20T06:17:37.520Z,4.70
2023-08-20T06:20:09.840Z,4.00
2023-08-20T06:22:37.481Z,5.82
2023-08-20T06:25:06.118Z,4.53
2023-08-20T06:27:35.768Z,5.28
2023-08-20T06:30:04.009Z,4.43
2023-08-20T06:32:31.622Z,4.03
2023-08-20T06:34:59.043Z,4.07
2023-08-20T06:37:26.503Z,4.20
2023-08-20T06:39:54.053Z,4.22
2023-08-20T06:42:21.776Z,5.25
2023-08-20T06:44:49.268Z,4.90
2023-08-20T06:47:16.726Z,4.32
2023-08-20T06:49:44.401Z,5.30
2023-08-20T06:52:11.916Z,5.47
2023-08-20T06:54:39.436Z,4.90
2023-08-20T06:57:07.008Z,4.40
2023-08-20T06:59:34.615Z,4.30
2023-08-20T07:02:02.157Z,4.22
2023-08-20T07:04:30.061Z,4.85
2023-08-20T07:06:57.774Z,4.13
2023-08-20T07:09:25.355Z,4.10
2023-08-20T07:11:52.763Z,3.83
2023-08-20T07:14:20.248Z,4.68
2023-08-20T07:16:47.769Z,3.55
2023-08-20T07:19:15.178Z,3.65
2023-08-20T07:21:42.692Z,3.15
2023-08-20T07:24:10.196Z,3.08
2023-08-20T07:26:37.827Z,3.15
2023-08-20T07:29:05.686Z,2.60
2023-08-20T07:31:35.132Z,3.40
2023-08-20T07:34:05.991Z,3.50
2023-08-20T07:36:34.889Z,2.47
2023-08-20T07:39:03.344Z,2.33
2023-08-20T07:41:31.455Z,2.53
2023-08-20T07:43:58.994Z,2.63
2023-08-20T07:46:26.579Z,3.22
2023-08-20T07:48:54.299Z,2.95
2023-08-20T07:51:21.927Z,2.80
2023-08-20T07:53:49.350Z,2.80
2023-08-20T07:56:16.832Z,3.17
2023-08-20T07:58:44.323Z,2.70
2023-08-20T08:01:14.737Z,3.50
2023-08-20T08:03:43.272Z,2.50
2023-08-20T08:06:11.363Z,2.92
2023-08-20T08:08:42.945Z,2.55
2023-08-20T08:11:10.387Z,2.75
2023-08-20T08:13:37.884Z,2.67
2023-08-20T08:16:05.608Z,2.45
2023-08-20T08:18:34.069Z,2.50
2023-08-20T08:21:01.958Z,2.55
2023-08-20T08:23:29.471Z,2.83
2023-08-20T08:25:56.986Z,3.15
2023-08-20T08:28:24.495Z,2.97
2023-08-20T08:30:52.183Z,2.65
2023-08-20T08:33:20.062Z,2.45
2023-08-20T08:35:47.568Z,2.63
2023-08-20T08:38:14.996Z,3.30
2023-08-20T08:40:43.698Z,2.90
2023-08-20T08:43:17.460Z,2.83
2023-08-20T08:45:49.940Z,3.00
2023-08-20T08:48:18.372Z,2.22
2023-08-20T08:50:46.926Z,2.83
2023-08-20T08:53:15.325Z,1.90
2023-08-20T08:55:43.948Z,2.55
2023-08-20T08:58:11.643Z,2.60
2023-08-20T09:00:39.090Z,2.55
2023-08-20T09:03:06.721Z,2.30
2023-08-20T09:05:35.367Z,3.13
2023-08-20T09:08:03.143Z,2.83
2023-08-20T09:10:31.005Z,2.72
2023-08-20T09:12:58.742Z,2.55
2023-08-20T09:15:34.545Z,3.25
2023-08-20T09:18:04.411Z,2.22
2023-08-20T09:20:36.458Z,2.50
2023-08-20T09:23:04.251Z,2.30
2023-08-20T09:25:32.039Z,2.03
2023-08-20T09:28:04.953Z,1.98
2023-08-20T09:30:32.549Z,1.88
2023-08-20T09:33:06.082Z,2.30
2023-08-20T09:35:33.660Z,2.25
2023-08-20T09:38:02.166Z,2.55
2023-08-20T09:40:29.663Z,2.40
2023-08-20T09:42:57.968Z,2.58
2023-08-20T09:45:28.795Z,2.25
2023-08-20T09:50:27.145Z,2.25
2023-08-20T09:53:03.606Z,2.30
2023-08-20T09:55:42.288Z,2.72
2023-08-20T09:58:11.741Z,2.38
2023-08-20T10:00:39.755Z,2.50
2023-08-20T10:03:07.358Z,2.35
2023-08-20T10:05:35.454Z,2.58
2023-08-20T10:08:03.563Z,2.10
2023-08-20T10:10:31.902Z,1.90
2023-08-20T10:12:59.858Z,1.90
2023-08-20T10:15:29.346Z,2.30
2023-08-20T10:17:59.111Z,1.60
2023-08-20T10:20:31.555Z,2.05
2023-08-20T10:23:03.795Z,2.30
2023-08-20T10:25:31.732Z,2.13
2023-08-20T10:28:22.482Z,1.90
2023-08-20T10:31:09.063Z,1.92
2023-08-20T10:33:50.482Z,2.33
2023-08-20T10:36:23.525Z,2.30
2023-08-20T10:38:51.535Z,2.15
2023-08-20T10:41:26.351Z,2.00
2023-08-20T10:43:54.220Z,2.25
2023-08-20T10:46:22.640Z,2.15
2023-08-20T10:48:55.618Z,1.88
2023-08-20T10:51:32.998Z,2.35
2023-08-20T10:54:04.595Z,1.70
2023-08-20T10:56:49.013Z,1.48
2023-08-20T10:59:17.700Z,2.17
2023-08-20T11:01:53.975Z,2.00
2023-08-20T11:04:22.979Z,1.98
2023-08-20T11:06:59.915Z,1.55
2023-08-20T11:09:29.262Z,1.90
2023-08-20T11:11:57.380Z,1.73
2023-08-20T11:14:25.346Z,1.23
2023-08-20T11:16:53.017Z,1.45
2023-08-20T11:19:24.832Z,1.60
2023-08-20T11:21:53.392Z,1.95
2023-08-20T11:24:22.015Z,1.80
2023-08-20T11:26:49.936Z,1.48
2023-08-20T11:29:21.364Z,1.60
2023-08-20T11:31:51.996Z,2.17
2023-08-20T11:34:20.603Z,1.40
2023-08-20T11:36:49.247Z,1.70
2023-08-20T11:39:16.914Z,2.00
2023-08-20T11:41:45.458Z,1.70
2023-08-20T11:44:21.658Z,1.60
2023-08-20T11:46:50.492Z,1.48
2023-08-20T11:49:18.078Z,2.20
2023-08-20T11:51:49.281Z,2.15
2023-08-20T11:54:18.443Z,1.30
2023-08-20T11:56:50.625Z,1.38
2023-08-20T11:59:21.740Z,1.58
2023-08-20T12:01:53.202Z,1.52
2023-08-20T12:04:26.116Z,1.58
2023-08-20T12:07:15.413Z,1.80
2023-08-20T12:09:43.561Z,1.33
2023-08-20T12:12:11.497Z,1.50
2023-08-20T12:14:41.032Z,1.55
2023-08-20T12:17:09.181Z,1.30
2023-08-20T12:19:36.711Z,1.60
2023-08-20T12:22:04.752Z,1.42
2023-08-20T12:24:32.258Z,1.60
2023-08-20T12:26:59.957Z,1.67
2023-08-20T12:29:27.390Z,1.20
2023-08-20T12:31:55.533Z,1.63
2023-08-20T12:34:23.128Z,1.33
2023-08-20T12:36:51.076Z,1.95
2023-08-20T12:39:19.642Z,1.50
2023-08-20T12:41:47.595Z,1.40
2023-08-20T12:44:15.112Z,1.05
2023-08-20T12:46:42.650Z,1.63
2023-08-20T12:49:10.663Z,1.77
2023-08-20T12:51:38.231Z,1.30
2023-08-20T12:54:05.909Z,1.45
2023-08-20T12:56:33.434Z,1.50
2023-08-20T12:59:00.915Z,1.65
2023-08-20T13:01:28.423Z,1.40
2023-08-20T13:03:56.325Z,1.38
2023-08-20T13:06:24.389Z,1.35
2023-08-20T13:08:52.148Z,1.30
2023-08-20T13:11:22.406Z,1.65
2023-08-20T13:13:50.104Z,1.88
2023-08-20T13:16:20.808Z,1.73
2023-08-20T13:18:48.651Z,1.80
2023-08-20T13:21:16.224Z,1.40
2023-08-20T13:23:46.726Z,1.40
2023-08-20T13:28:41.736Z,1.40
2023-08-20T13:31:19.899Z,1.60
2023-08-20T13:33:48.791Z,1.70
2023-08-20T13:36:16.852Z,1.63
2023-08-20T13:38:45.776Z,1.40
2023-08-20T13:41:13.808Z,1.00
2023-08-20T13:43:41.284Z,1.40
2023-08-20T13:46:09.012Z,1.35
2023-08-20T13:48:36.871Z,1.63
2023-08-20T13:51:04.504Z,1.88
2023-08-20T13:53:32.021Z,1.63
2023-08-20T13:55:59.657Z,1.77
2023-08-20T13:58:27.164Z,1.50
2023-08-20T14:00:54.751Z,1.30
2023-08-20T14:03:22.407Z,1.30
2023-08-20T14:05:50.257Z,1.52
2023-08-20T14:08:17.783Z,1.58
2023-08-20T14:10:45.785Z,1.35
2023-08-20T14:13:13.363Z,1.88
2023-08-20T14:15:41.735Z,1.55
2023-08-20T14:18:10.498Z,1.80
2023-08-20T14:20:38.197Z,1.67
2023-08-20T14:23:05.878Z,1.45
2023-08-20T14:25:33.652Z,1.83
2023-08-20T14:28:01.243Z,1.50
2023-08-20T14:30:28.672Z,1.30
2023-08-20T14:32:56.220Z,1.83
2023-08-20T14:35:23.982Z,2.50
2023-08-20T14:37:54.297Z,1.70
2023-08-20T14:40:21.800Z,1.80
2023-08-20T14:42:49.386Z,2.10
2023-08-20T14:45:16.958Z,1.80
2023-08-20T14:47:44.465Z,1.77
2023-08-20T14:50:12.033Z,1.58
2023-08-20T14:52:39.809Z,2.05
2023-08-20T14:55:09.600Z,1.65
2023-08-20T14:57:50.707Z,1.70
2023-08-20T15:00:20.465Z,1.42
2023-08-20T15:02:48.657Z,1.60
2023-08-20T15:05:16.188Z,1.50
2023-08-20T15:07:43.817Z,1.63
2023-08-20T15:10:11.474Z,1.95
2023-08-20T15:12:39.035Z,1.38
2023-08-20T15:15:10.112Z,1.60
2023-08-20T15:17:38.746Z,1.50
2023-08-20T15:20:09.751Z,1.67
2023-08-20T15:22:38.076Z,1.52
2023-08-20T15:25:08.841Z,1.73
2023-08-20T15:27:36.613Z,1.35
2023-08-20T15:30:05.272Z,3.15
2023-08-20T15:32:33.564Z,2.00
2023-08-20T15:35:04.185Z,1.77
2023-08-20T15:37:31.709Z,1.98
2023-08-20T15:39:59.305Z,1.90
2023-08-20T15:42:27.452Z,1.92
2023-08-20T15:44:55.237Z,2.53
2023-08-20T15:47:22.863Z,2.80
2023-08-20T15:49:50.383Z,2.70
2023-08-20T15:52:17.801Z,3.22
2023-08-20T15:54:45.495Z,2.50
2023-08-20T15:57:13.266Z,1.70
2023-08-20T15:59:41.393Z,1.83
2023-08-20T16:02:12.436Z,1.55
2023-08-20T16:04:39.988Z,2.00
2023-08-20T16:07:08.654Z,1.50
2023-08-20T16:09:43.284Z,1.67
2023-08-20T16:12:11.792Z,1.52
2023-08-20T16:14:39.455Z,1.30
2023-08-20T16:17:07.222Z,1.67
2023-08-20T16:19:35.056Z,1.98
2023-08-20T16:22:02.604Z,1.38
2023-08-20T16:24:30.152Z,1.25
2023-08-20T16:26:57.747Z,1.42
2023-08-20T16:29:26.094Z,1.35
2023-08-20T16:31:53.761Z,1.60
2023-08-20T16:34:21.206Z,1.60
2023-08-20T16:36:48.842Z,1.63
2023-08-20T16:39:16.334Z,1.67
2023-08-20T16:41:43.926Z,1.10
2023-08-20T16:44:11.540Z,1.67
2023-08-20T16:46:39.132Z,2.15
2023-08-20T16:49:06.556Z,1.90
2023-08-20T16:51:34.084Z,2.70
2023-08-20T16:54:01.574Z,2.60
2023-08-20T16:56:29.190Z,1.38
2023-08-20T16:58:56.713Z,1.20
2023-08-20T17:01:24.445Z,1.50
2023-08-20T17:03:54.293Z,1.35
2023-08-20T17:06:21.895Z,1.37
2023-08-20T17:08:49.553Z,1.40
2023-08-20T17:11:17.502Z,1.23
2023-08-20T17:13:45.213Z,1.40
2023-08-20T17:16:13.566Z,1.45
2023-08-20T17:18:41.389Z,1.38
2023-08-20T17:21:08.919Z,1.27
2023-08-20T17:23:36.511Z,1.13
2023-08-20T17:26:03.962Z,1.35
2023-08-20T17:28:31.487Z,1.25
2023-08-20T17:30:59.066Z,1.08
2023-08-20T17:33:26.828Z,1.20
2023-08-20T17:35:54.278Z,1.30
2023-08-20T17:38:24.800Z,1.27
2023-08-20T17:40:52.347Z,1.38
2023-08-20T17:43:19.885Z,1.40
2023-08-20T17:45:51.624Z,1.30
2023-08-20T17:48:19.272Z,1.50
2023-08-20T17:50:47.575Z,1.70
2023-08-20T17:53:15.078Z,1.67
2023-08-20T17:55:43.034Z,1.40
2023-08-20T17:58:10.518Z,1.40
2023-08-20T18:00:39.418Z,1.38
2023-08-20T18:03:07.122Z,1.33
2023-08-20T18:05:38.272Z,1.75
2023-08-20T18:08:05.979Z,1.20
2023-08-20T18:10:33.490Z,1.67
2023-08-20T18:13:03.530Z,1.67
2023-08-20T18:15:31.614Z,1.20
2023-08-20T18:18:00.997Z,1.45
2023-08-20T18:20:29.037Z,1.85
2023-08-20T18:22:56.552Z,1.67
2023-08-20T18:25:24.232Z,1.58
2023-08-20T18:27:52.941Z,1.50
2023-08-20T18:30:20.644Z,1.83
2023-08-20T18:32:48.436Z,1.40
2023-08-20T18:35:16.241Z,1.33
2023-08-20T18:37:43.745Z,1.60
2023-08-20T18:40:12.648Z,1.35
2023-08-20T18:42:40.342Z,1.55
2023-08-20T18:45:08.637Z,1.90
2023-08-20T18:47:36.083Z,1.65
2023-08-20T18:50:05.319Z,1.38
2023-08-20T18:52:33.147Z,1.60
2023-08-20T18:55:00.848Z,1.42
2023-08-20T18:57:28.442Z,1.55
2023-08-20T18:59:55.835Z,1.23
2023-08-20T19:02:24.179Z,1.60
2023-08-20T19:04:53.030Z,1.58
2023-08-20T19:07:20.480Z,1.50
2023-08-20T19:09:48.083Z,1.83
2023-08-20T19:12:15.559Z,2.00
2023-08-20T19:14:43.030Z,1.65
2023-08-20T19:17:10.836Z,1.48
2023-08-20T19:19:39.042Z,2.33
2023-08-20T19:22:06.886Z,2.00
2023-08-20T19:24:34.499Z,2.00
2023-08-20T19:27:01.984Z,2.25
2023-08-20T19:29:29.462Z,1.88
2023-08-20T19:31:57.467Z,1.58
2023-08-20T19:34:25.994Z,1.63
2023-08-20T19:36:53.948Z,2.10
2023-08-20T19:39:21.647Z,1.50
2023-08-20T19:41:49.260Z,1.40
2023-08-20T19:44:16.862Z,1.70
2023-08-20T19:46:44.328Z,1.75
2023-08-20T19:49:13.183Z,1.70
2023-08-20T19:51:40.712Z,1.60
2023-08-20T19:54:08.507Z,2.08
2023-08-20T19:56:36.523Z,1.60
2023-08-20T19:59:04.047Z,1.92
2023-08-20T20:01:46.008Z,2.15
2023-08-20T20:04:13.492Z,1.55
2023-08-20T20:06:41.063Z,1.58
2023-08-20T20:09:08.916Z,1.50
2023-08-20T20:11:36.933Z,1.38
2023-08-20T20:14:04.763Z,2.03
2023-08-20T20:16:33.258Z,1.85
2023-08-20T20:19:00.970Z,1.67
2023-08-20T20:21:28.420Z,2.28
2023-08-20T20:23:56.056Z,2.60
2023-08-20T20:26:23.524Z,1.98
2023-08-20T20:28:50.942Z,2.03
2023-08-20T20:31:19.507Z,1.85
2023-08-20T20:33:47.029Z,1.70
2023-08-20T20:36:14.676Z,1.70
2023-08-20T20:38:42.187Z,2.15
2023-08-20T20:41:10.472Z,2.03
2023-08-20T20:43:37.910Z,2.95
2023-08-20T20:46:05.460Z,1.60
2023-08-20T20:48:33.044Z,1.90
2023-08-20T20:51:00.701Z,2.60
2023-08-20T20:53:28.244Z,2.08
2023-08-20T20:55:58.116Z,2.05
2023-08-20T20:58:25.813Z,2.08
2023-08-20T21:00:58.217Z,3.15
2023-08-20T21:03:25.820Z,2.40
2023-08-20T21:05:53.440Z,3.22
2023-08-20T21:08:20.918Z,2.75
2023-08-20T21:10:48.390Z,2.72
2023-08-20T21:13:16.062Z,2.33
2023-08-20T21:15:44.363Z,2.58
2023-08-20T21:18:11.864Z,3.00
2023-08-20T21:20:39.646Z,2.55
2023-08-20T21:23:07.128Z,2.75
2023-08-20T21:25:35.904Z,2.15
2023-08-20T21:28:03.675Z,2.50
2023-08-20T21:30:31.451Z,2.40
2023-08-20T21:32:59.964Z,2.40
2023-08-20T21:35:27.619Z,2.67
2023-08-20T21:37:55.290Z,2.38
2023-08-20T21:40:22.785Z,2.75
2023-08-20T21:42:50.330Z,2.67
2023-08-20T21:45:20.989Z,2.85
2023-08-20T21:47:49.707Z,3.15
2023-08-20T21:50:17.770Z,2.53
2023-08-20T21:52:46.766Z,2.50
2023-08-20T21:55:15.561Z,3.20
2023-08-20T21:57:43.187Z,3.05
2023-08-20T22:00:17.726Z,2.53
2023-08-20T22:02:46.769Z,3.15
2023-08-20T22:05:22.383Z,3.00
2023-08-20T22:07:51.355Z,2.63
2023-08-20T22:10:20.288Z,2.60
2023-08-20T22:12:49.054Z,2.70
2023-08-20T22:15:16.539Z,2.67
2023-08-20T22:17:44.353Z,2.17
2023-08-20T22:20:12.959Z,2.40
2023-08-20T22:22:43.848Z,2.25
2023-08-20T22:27:40.120Z,2.63
2023-08-20T22:30:08.551Z,2.97
2023-08-20T22:32:36.379Z,2.72
2023-08-20T22:35:06.161Z,2.38
2023-08-20T22:37:33.869Z,3.03
2023-08-20T22:40:01.713Z,2.70
2023-08-20T22:42:29.371Z,2.80
2023-08-20T22:44:56.886Z,3.15
2023-08-20T22:47:24.561Z,2.72
2023-08-20T22:49:52.061Z,2.60
2023-08-20T22:52:19.787Z,3.10
2023-08-20T22:54:47.317Z,2.83
2023-08-20T22:57:15.901Z,3.30
2023-08-20T22:59:43.782Z,2.58
2023-08-20T23:02:11.548Z,2.83
2023-08-20T23:04:41.264Z,3.13
2023-08-20T23:07:11.074Z,2.85
2023-08-20T23:09:38.626Z,2.80
2023-08-20T23:12:06.568Z,2.65
2023-08-20T23:14:35.114Z,2.97
2023-08-20T23:17:03.201Z,3.20
2023-08-20T23:19:30.696Z,2.78
2023-08-20T23:21:58.313Z,2.58
2023-08-20T23:24:26.385Z,2.75
2023-08-20T23:26:53.790Z,3.20
2023-08-20T23:29:21.552Z,2.67
2023-08-20T23:34:19.826Z,2.80
2023-08-20T23:36:47.518Z,3.03
2023-08-20T23:39:15.120Z,2.83
2023-08-20T23:41:46.446Z,3.15
2023-08-20T23:44:15.081Z,3.13
2023-08-20T23:46:48.392Z,3.53
2023-08-20T23:49:16.453Z,3.33
2023-08-20T23:51:43.982Z,3.00
2023-08-20T23:54:11.565Z,3.25
2023-08-20T23:56:39.014Z,2.78
2023-08-20T23:59:06.841Z,3.17
